createdAt,value
2017-12-01T00:01:28.316Z,30.3
2017-12-01T00:11:26.492Z,39.1
2017-12-01T00:21:27.377Z,33.7
2017-12-01T00:31:31.917Z,39.8
2017-12-01T00:41:46.921Z,35.6
2017-12-01T00:51:58.778Z,37.4
2017-12-01T01:02:01.245Z,41.4
2017-12-01T01:11:31.848Z,34.4
2017-12-01T01:21:32.684Z,41.8
2017-12-01T01:31:32.160Z,35.7
2017-12-01T01:41:32.179Z,32.5
2017-12-01T01:51:27.085Z,34.6
2017-12-01T02:01:34.426Z,33.7
2017-12-01T02:11:32.636Z,31.1
2017-12-01T02:21:32.336Z,37.3
2017-12-01T02:31:32.649Z,34.4
2017-12-01T02:41:31.810Z,29.7
2017-12-01T02:51:33.890Z,28.0
2017-12-01T03:01:32.216Z,29.8
2017-12-01T03:21:33.069Z,24.7
2017-12-01T03:31:33.902Z,24.7
2017-12-01T03:41:26.309Z,21.5
2017-12-01T03:51:26.937Z,23.3
2017-12-01T04:01:32.668Z,24.7
2017-12-01T04:11:29.091Z,23.9
2017-12-01T04:21:48.080Z,27.6
2017-12-01T04:31:35.164Z,27.8
2017-12-01T04:41:32.353Z,24.8
2017-12-01T04:51:32.784Z,22.3
2017-12-01T05:01:32.443Z,20.9
2017-12-01T05:11:32.049Z,17.4
2017-12-01T05:21:32.396Z,16.9
2017-12-01T05:31:32.560Z,14.6
2017-12-01T05:41:33.224Z,18.0
2017-12-01T05:51:27.748Z,24.8
2017-12-01T06:01:26.842Z,23.7
2017-12-01T06:11:30.139Z,19.9
2017-12-01T06:21:26.513Z,25.2
2017-12-01T06:31:35.147Z,35.6
2017-12-01T06:41:33.330Z,25.5
2017-12-01T06:51:30.899Z,32.6
2017-12-01T07:01:28.223Z,37.6
2017-12-01T07:11:27.462Z,42.1
2017-12-01T07:21:33.031Z,37.9
2017-12-01T07:31:30.478Z,39.0
2017-12-01T07:41:28.302Z,38.5
2017-12-01T07:51:26.403Z,43.0
2017-12-01T08:01:32.710Z,38.2
2017-12-01T08:11:28.286Z,36.9
2017-12-01T08:21:32.251Z,45.7
2017-12-01T08:31:26.655Z,39.2
2017-12-01T08:41:29.940Z,42.1
2017-12-01T08:51:27.383Z,35.8
2017-12-01T09:01:26.667Z,31.7
2017-12-01T09:11:27.722Z,33.8
2017-12-01T09:21:29.077Z,31.7
2017-12-01T09:31:33.412Z,30.1
2017-12-01T09:41:29.006Z,31.0
2017-12-01T09:51:28.052Z,27.1
2017-12-01T10:01:26.960Z,47.9
2017-12-01T10:11:26.898Z,43.2
2017-12-01T10:21:26.455Z,42.8
2017-12-01T10:31:28.444Z,42.3
2017-12-01T10:41:27.331Z,38.3
2017-12-01T10:51:27.072Z,39.9
2017-12-01T11:01:26.527Z,35.4
2017-12-01T11:11:29.107Z,48.2
2017-12-01T11:21:29.564Z,51.2
2017-12-01T11:31:32.774Z,58.0
2017-12-01T11:41:32.576Z,50.5
2017-12-01T11:51:27.204Z,49.9
2017-12-01T12:01:27.406Z,52.2
2017-12-01T12:11:33.991Z,45.6
2017-12-01T12:21:33.246Z,51.0
2017-12-01T12:31:26.497Z,45.6
2017-12-01T12:41:26.878Z,43.7
2017-12-01T12:51:32.856Z,28.6
2017-12-01T13:01:29.055Z,25.6
2017-12-01T13:11:32.464Z,31.4
2017-12-01T13:21:26.939Z,35.9
2017-12-01T13:31:27.047Z,41.1
2017-12-01T13:41:29.367Z,35.9
2017-12-01T13:51:27.955Z,33.7
2017-12-01T14:01:32.456Z,35.5
2017-12-01T14:11:28.296Z,36.3
2017-12-01T14:21:28.063Z,35.4
2017-12-01T14:31:27.897Z,38.1
2017-12-01T14:41:28.653Z,35.7
2017-12-01T14:51:27.272Z,36.3
2017-12-01T15:01:27.045Z,52.0
2017-12-01T15:11:28.175Z,44.5
2017-12-01T15:21:28.388Z,39.6
2017-12-01T15:31:27.830Z,46.3
2017-12-01T15:41:26.501Z,53.7
2017-12-01T15:51:28.120Z,49.7
2017-12-01T16:01:28.383Z,49.5
2017-12-01T16:11:27.835Z,55.2
2017-12-01T16:21:27.919Z,61.5
2017-12-01T16:31:26.314Z,61.9
2017-12-01T16:41:28.866Z,67.6
2017-12-01T16:51:29.297Z,65.9
2017-12-01T17:01:27.763Z,71.3
2017-12-01T17:11:29.010Z,84.7
2017-12-01T17:21:32.727Z,97.9
2017-12-01T17:31:30.985Z,109.4
2017-12-01T17:41:29.636Z,126.5
2017-12-01T17:51:30.339Z,123.2
2017-12-01T18:01:33.353Z,115.8
2017-12-01T18:11:28.727Z,125.0
2017-12-01T18:21:31.433Z,126.7
2017-12-01T18:31:28.521Z,121.7
2017-12-01T18:41:30.960Z,121.5
2017-12-01T18:51:32.088Z,114.2
2017-12-01T19:01:30.733Z,129.9
2017-12-01T19:11:31.768Z,131.4
2017-12-01T19:21:28.702Z,137.9
2017-12-01T19:31:30.500Z,142.5
2017-12-01T19:41:29.132Z,149.5
2017-12-01T19:51:32.097Z,143.4
2017-12-01T20:01:32.783Z,147.3
2017-12-01T20:11:29.893Z,158.7
2017-12-01T20:21:29.728Z,152.5
2017-12-01T20:31:27.937Z,149.8
2017-12-01T20:41:29.465Z,162.7
2017-12-01T20:51:27.158Z,154.6
2017-12-01T21:01:26.985Z,162.8
2017-12-01T21:11:26.675Z,178.7
2017-12-01T21:21:26.234Z,163.4
2017-12-01T21:31:29.125Z,174.8
2017-12-01T21:41:27.148Z,198.3
2017-12-01T21:51:26.600Z,183.8
2017-12-01T22:01:26.636Z,181.2
2017-12-01T22:11:27.266Z,185.9
2017-12-01T22:21:28.922Z,197.4
2017-12-01T22:31:26.132Z,188.2
2017-12-01T22:41:26.431Z,194.0
2017-12-01T22:51:27.868Z,195.9
2017-12-01T23:01:26.253Z,200.7
2017-12-01T23:11:34.455Z,227.8
2017-12-01T23:21:32.700Z,214.6
2017-12-01T23:31:32.932Z,232.2
2017-12-01T23:41:32.983Z,200.6
2017-12-01T23:51:26.395Z,204.6
